sensor_id;sensor_type;location;lat;lon;timestamp;temperature;humidity
35027;DHT22;60696;51.426;6.934;2022-08-11T00:01:07;21.20;80.40
35027;DHT22;60696;51.426;6.934;2022-08-11T00:03:33;21.10;80.70
35027;DHT22;60696;51.426;6.934;2022-08-11T00:05:59;21.10;81.00
35027;DHT22;60696;51.426;6.934;2022-08-11T00:08:27;21.10;81.30
35027;DHT22;60696;51.426;6.934;2022-08-11T00:10:54;21.10;82.20
35027;DHT22;60696;51.426;6.934;2022-08-11T00:13:20;21.00;81.90
35027;DHT22;60696;51.426;6.934;2022-08-11T00:15:46;21.00;82.40
35027;DHT22;60696;51.426;6.934;2022-08-11T00:18:12;20.90;82.80
35027;DHT22;60696;51.426;6.934;2022-08-11T00:20:39;20.90;83.00
35027;DHT22;60696;51.426;6.934;2022-08-11T00:23:06;20.90;83.30
35027;DHT22;60696;51.426;6.934;2022-08-11T00:25:36;20.80;83.80
35027;DHT22;60696;51.426;6.934;2022-08-11T00:28:02;20.80;84.10
35027;DHT22;60696;51.426;6.934;2022-08-11T00:30:37;20.80;85.30
35027;DHT22;60696;51.426;6.934;2022-08-11T00:33:03;20.70;85.60
35027;DHT22;60696;51.426;6.934;2022-08-11T00:35:29;20.70;85.30
35027;DHT22;60696;51.426;6.934;2022-08-11T00:37:55;20.70;86.30
35027;DHT22;60696;51.426;6.934;2022-08-11T00:40:26;20.70;86.50
35027;DHT22;60696;51.426;6.934;2022-08-11T00:42:58;20.60;86.70
35027;DHT22;60696;51.426;6.934;2022-08-11T00:45:31;20.60;87.50
35027;DHT22;60696;51.426;6.934;2022-08-11T00:48:19;20.50;87.80
35027;DHT22;60696;51.426;6.934;2022-08-11T00:51:09;20.40;88.70
35027;DHT22;60696;51.426;6.934;2022-08-11T01:01:20;20.40;89.30
35027;DHT22;60696;51.426;6.934;2022-08-11T01:30:14;20.00;91.10
35027;DHT22;60696;51.426;6.934;2022-08-11T01:44:03;19.90;92.30
35027;DHT22;60696;51.426;6.934;2022-08-11T01:50:13;19.90;92.70
35027;DHT22;60696;51.426;6.934;2022-08-11T01:55:33;19.80;92.70
35027;DHT22;60696;51.426;6.934;2022-08-11T02:00:31;19.80;93.70
35027;DHT22;60696;51.426;6.934;2022-08-11T02:03:07;19.70;93.90
35027;DHT22;60696;51.426;6.934;2022-08-11T02:11:25;19.60;94.50
35027;DHT22;60696;51.426;6.934;2022-08-11T02:22:12;19.30;95.10
35027;DHT22;60696;51.426;6.934;2022-08-11T02:25:01;19.30;95.50
35027;DHT22;60696;51.426;6.934;2022-08-11T02:30:13;19.20;95.90
35027;DHT22;60696;51.426;6.934;2022-08-11T02:38:25;19.10;96.70
35027;DHT22;60696;51.426;6.934;2022-08-11T02:41:09;19.10;96.90
35027;DHT22;60696;51.426;6.934;2022-08-11T02:44:09;19.20;97.20
35027;DHT22;60696;51.426;6.934;2022-08-11T02:46:57;19.20;97.20
35027;DHT22;60696;51.426;6.934;2022-08-11T02:54:52;19.10;97.40
35027;DHT22;60696;51.426;6.934;2022-08-11T02:57:23;19.10;97.70
35027;DHT22;60696;51.426;6.934;2022-08-11T03:00:06;19.00;97.60
35027;DHT22;60696;51.426;6.934;2022-08-11T03:08:00;18.90;98.40
35027;DHT22;60696;51.426;6.934;2022-08-11T03:10:20;18.80;98.70
35027;DHT22;60696;51.426;6.934;2022-08-11T03:12:54;18.80;98.90
35027;DHT22;60696;51.426;6.934;2022-08-11T03:18:58;18.70;99.50
35027;DHT22;60696;51.426;6.934;2022-08-11T03:21:40;18.60;99.90
35027;DHT22;60696;51.426;6.934;2022-08-11T03:24:10;18.60;99.90
35027;DHT22;60696;51.426;6.934;2022-08-11T03:29:34;18.60;99.90
35027;DHT22;60696;51.426;6.934;2022-08-11T03:34:35;18.50;99.90
35027;DHT22;60696;51.426;6.934;2022-08-11T03:40:12;18.40;99.90
35027;DHT22;60696;51.426;6.934;2022-08-11T03:53:15;18.40;99.90
35027;DHT22;60696;51.426;6.934;2022-08-11T04:03:30;18.30;99.90
35027;DHT22;60696;51.426;6.934;2022-08-11T04:11:20;18.20;99.90
35027;DHT22;60696;51.426;6.934;2022-08-11T04:14:21;18.20;99.90
35027;DHT22;60696;51.426;6.934;2022-08-11T04:22:32;18.10;99.90
35027;DHT22;60696;51.426;6.934;2022-08-11T04:30:29;18.20;99.90
35027;DHT22;60696;51.426;6.934;2022-08-11T04:35:46;18.00;99.90
35027;DHT22;60696;51.426;6.934;2022-08-11T04:57:48;17.70;99.90
35027;DHT22;60696;51.426;6.934;2022-08-11T05:00:38;17.70;99.90
35027;DHT22;60696;51.426;6.934;2022-08-11T05:06:31;18.20;99.90
35027;DHT22;60696;51.426;6.934;2022-08-11T05:11:33;18.90;99.90
35027;DHT22;60696;51.426;6.934;2022-08-11T05:16:50;18.70;99.90
35027;DHT22;60696;51.426;6.934;2022-08-11T05:19:35;18.70;99.90
35027;DHT22;60696;51.426;6.934;2022-08-11T05:22:20;18.60;99.90
35027;DHT22;60696;51.426;6.934;2022-08-11T05:25:11;18.70;99.90
35027;DHT22;60696;51.426;6.934;2022-08-11T05:28:02;18.80;99.90
35027;DHT22;60696;51.426;6.934;2022-08-11T05:30:46;18.60;99.90
35027;DHT22;60696;51.426;6.934;2022-08-11T05:33:55;18.60;99.90
35027;DHT22;60696;51.426;6.934;2022-08-11T05:36:39;18.70;99.90
35027;DHT22;60696;51.426;6.934;2022-08-11T05:39:24;18.80;99.90
35027;DHT22;60696;51.426;6.934;2022-08-11T05:42:09;18.90;99.90
35027;DHT22;60696;51.426;6.934;2022-08-11T05:44:54;18.90;99.90
35027;DHT22;60696;51.426;6.934;2022-08-11T05:47:40;19.00;99.90
35027;DHT22;60696;51.426;6.934;2022-08-11T05:50:24;19.10;99.90
35027;DHT22;60696;51.426;6.934;2022-08-11T05:53:09;19.40;99.90
35027;DHT22;60696;51.426;6.934;2022-08-11T05:55:53;19.90;99.90
35027;DHT22;60696;51.426;6.934;2022-08-11T05:58:38;20.60;99.90
35027;DHT22;60696;51.426;6.934;2022-08-11T06:01:05;21.80;98.40
35027;DHT22;60696;51.426;6.934;2022-08-11T06:03:31;22.40;96.40
35027;DHT22;60696;51.426;6.934;2022-08-11T06:05:57;23.00;94.80
35027;DHT22;60696;51.426;6.934;2022-08-11T06:08:30;23.30;93.50
35027;DHT22;60696;51.426;6.934;2022-08-11T06:11:00;23.50;92.80
35027;DHT22;60696;51.426;6.934;2022-08-11T06:13:26;23.80;92.00
35027;DHT22;60696;51.426;6.934;2022-08-11T06:15:52;24.30;90.70
35027;DHT22;60696;51.426;6.934;2022-08-11T06:18:20;24.50;89.20
35027;DHT22;60696;51.426;6.934;2022-08-11T06:20:55;24.90;88.40
35027;DHT22;60696;51.426;6.934;2022-08-11T06:23:23;24.80;87.60
35027;DHT22;60696;51.426;6.934;2022-08-11T06:25:52;24.80;87.20
35027;DHT22;60696;51.426;6.934;2022-08-11T06:28:18;25.30;85.10
35027;DHT22;60696;51.426;6.934;2022-08-11T06:30:45;25.80;84.20
35027;DHT22;60696;51.426;6.934;2022-08-11T06:33:12;26.10;82.30
35027;DHT22;60696;51.426;6.934;2022-08-11T06:38:26;26.00;79.90
35027;DHT22;60696;51.426;6.934;2022-08-11T06:40:55;26.10;79.40
35027;DHT22;60696;51.426;6.934;2022-08-11T06:43:45;26.30;79.30
35027;DHT22;60696;51.426;6.934;2022-08-11T06:46:11;27.10;77.10
35027;DHT22;60696;51.426;6.934;2022-08-11T06:48:39;27.20;75.80
35027;DHT22;60696;51.426;6.934;2022-08-11T06:51:07;27.20;76.50
35027;DHT22;60696;51.426;6.934;2022-08-11T06:53:46;26.90;75.80
35027;DHT22;60696;51.426;6.934;2022-08-11T06:56:13;26.90;75.40
35027;DHT22;60696;51.426;6.934;2022-08-11T06:58:58;27.40;74.60
35027;DHT22;60696;51.426;6.934;2022-08-11T07:01:56;27.50;75.00
35027;DHT22;60696;51.426;6.934;2022-08-11T07:04:29;28.50;72.50
35027;DHT22;60696;51.426;6.934;2022-08-11T07:15:14;28.60;71.60
35027;DHT22;60696;51.426;6.934;2022-08-11T07:17:59;29.20;70.40
35027;DHT22;60696;51.426;6.934;2022-08-11T07:20:46;30.20;69.20
35027;DHT22;60696;51.426;6.934;2022-08-11T07:23:33;30.30;67.50
35027;DHT22;60696;51.426;6.934;2022-08-11T07:26:18;30.50;68.50
35027;DHT22;60696;51.426;6.934;2022-08-11T07:29:04;31.50;66.80
35027;DHT22;60696;51.426;6.934;2022-08-11T07:34:04;31.70;65.20
35027;DHT22;60696;51.426;6.934;2022-08-11T07:36:32;32.80;63.80
35027;DHT22;60696;51.426;6.934;2022-08-11T07:39:01;32.90;62.80
35027;DHT22;60696;51.426;6.934;2022-08-11T07:41:27;33.20;61.80
35027;DHT22;60696;51.426;6.934;2022-08-11T07:43:57;32.80;61.50
35027;DHT22;60696;51.426;6.934;2022-08-11T07:46:40;32.10;62.20
35027;DHT22;60696;51.426;6.934;2022-08-11T07:49:24;32.70;61.60
35027;DHT22;60696;51.426;6.934;2022-08-11T07:52:09;32.50;60.90
35027;DHT22;60696;51.426;6.934;2022-08-11T07:55:02;32.60;61.60
35027;DHT22;60696;51.426;6.934;2022-08-11T07:57:29;33.20;60.40
35027;DHT22;60696;51.426;6.934;2022-08-11T08:00:14;33.60;59.50
35027;DHT22;60696;51.426;6.934;2022-08-11T08:02:58;34.90;57.90
35027;DHT22;60696;51.426;6.934;2022-08-11T08:05:44;34.80;58.10
35027;DHT22;60696;51.426;6.934;2022-08-11T08:08:28;35.80;58.10
35027;DHT22;60696;51.426;6.934;2022-08-11T08:11:13;36.90;56.70
35027;DHT22;60696;51.426;6.934;2022-08-11T08:13:57;37.00;54.20
35027;DHT22;60696;51.426;6.934;2022-08-11T08:16:41;37.00;53.80
35027;DHT22;60696;51.426;6.934;2022-08-11T08:19:26;36.50;54.10
35027;DHT22;60696;51.426;6.934;2022-08-11T08:21:51;35.90;53.90
35027;DHT22;60696;51.426;6.934;2022-08-11T08:24:17;35.90;55.60
35027;DHT22;60696;51.426;6.934;2022-08-11T08:26:44;36.30;53.80
35027;DHT22;60696;51.426;6.934;2022-08-11T08:29:22;36.10;54.50
35027;DHT22;60696;51.426;6.934;2022-08-11T08:32:07;36.30;53.40
35027;DHT22;60696;51.426;6.934;2022-08-11T08:34:34;37.40;53.20
35027;DHT22;60696;51.426;6.934;2022-08-11T08:36:59;38.50;52.80
35027;DHT22;60696;51.426;6.934;2022-08-11T08:39:25;40.50;50.70
35027;DHT22;60696;51.426;6.934;2022-08-11T08:41:54;39.50;49.80
35027;DHT22;60696;51.426;6.934;2022-08-11T08:44:20;38.10;49.90
35027;DHT22;60696;51.426;6.934;2022-08-11T08:46:50;37.90;50.90
35027;DHT22;60696;51.426;6.934;2022-08-11T08:49:21;38.10;50.40
35027;DHT22;60696;51.426;6.934;2022-08-11T08:51:48;37.30;51.50
35027;DHT22;60696;51.426;6.934;2022-08-11T08:54:18;37.30;51.20
35027;DHT22;60696;51.426;6.934;2022-08-11T08:56:44;36.60;49.30
35027;DHT22;60696;51.426;6.934;2022-08-11T08:59:11;37.30;52.00
35027;DHT22;60696;51.426;6.934;2022-08-11T09:01:50;38.10;49.70
35027;DHT22;60696;51.426;6.934;2022-08-11T09:04:17;38.60;49.10
35027;DHT22;60696;51.426;6.934;2022-08-11T09:06:44;40.10;49.60
35027;DHT22;60696;51.426;6.934;2022-08-11T09:09:11;41.00;47.60
35027;DHT22;60696;51.426;6.934;2022-08-11T09:11:38;39.90;47.20
35027;DHT22;60696;51.426;6.934;2022-08-11T09:14:20;38.70;48.40
35027;DHT22;60696;51.426;6.934;2022-08-11T09:16:46;38.40;48.40
35027;DHT22;60696;51.426;6.934;2022-08-11T09:19:14;39.20;49.30
35027;DHT22;60696;51.426;6.934;2022-08-11T09:21:50;39.80;48.30
35027;DHT22;60696;51.426;6.934;2022-08-11T09:24:35;40.90;47.10
35027;DHT22;60696;51.426;6.934;2022-08-11T09:27:19;39.70;47.00
35027;DHT22;60696;51.426;6.934;2022-08-11T09:29:44;39.90;47.60
35027;DHT22;60696;51.426;6.934;2022-08-11T09:32:10;38.60;47.60
35027;DHT22;60696;51.426;6.934;2022-08-11T09:34:37;38.30;47.70
35027;DHT22;60696;51.426;6.934;2022-08-11T09:37:03;39.40;47.50
35027;DHT22;60696;51.426;6.934;2022-08-11T09:39:47;39.90;46.30
35027;DHT22;60696;51.426;6.934;2022-08-11T09:42:31;39.50;46.50
35027;DHT22;60696;51.426;6.934;2022-08-11T09:45:16;37.20;48.50
35027;DHT22;60696;51.426;6.934;2022-08-11T09:47:41;37.00;49.50
35027;DHT22;60696;51.426;6.934;2022-08-11T09:50:07;36.70;50.00
35027;DHT22;60696;51.426;6.934;2022-08-11T09:52:35;36.40;48.80
35027;DHT22;60696;51.426;6.934;2022-08-11T09:55:00;35.50;50.30
35027;DHT22;60696;51.426;6.934;2022-08-11T09:57:26;35.00;50.20
35027;DHT22;60696;51.426;6.934;2022-08-11T10:00:11;34.40;50.80
35027;DHT22;60696;51.426;6.934;2022-08-11T10:02:39;34.70;51.30
35027;DHT22;60696;51.426;6.934;2022-08-11T10:05:05;34.20;51.50
35027;DHT22;60696;51.426;6.934;2022-08-11T10:07:50;34.10;50.30
35027;DHT22;60696;51.426;6.934;2022-08-11T10:10:17;33.40;51.70
35027;DHT22;60696;51.426;6.934;2022-08-11T10:12:52;32.60;48.30
35027;DHT22;60696;51.426;6.934;2022-08-11T10:15:20;32.40;50.90
35027;DHT22;60696;51.426;6.934;2022-08-11T10:20:46;33.30;50.00
35027;DHT22;60696;51.426;6.934;2022-08-11T10:23:15;32.60;49.80
35027;DHT22;60696;51.426;6.934;2022-08-11T10:26:00;32.20;49.50
35027;DHT22;60696;51.426;6.934;2022-08-11T10:28:45;32.40;50.30
35027;DHT22;60696;51.426;6.934;2022-08-11T10:31:10;31.70;50.80
35027;DHT22;60696;51.426;6.934;2022-08-11T10:33:54;31.90;51.30
35027;DHT22;60696;51.426;6.934;2022-08-11T10:36:28;31.80;51.00
35027;DHT22;60696;51.426;6.934;2022-08-11T10:38:54;31.80;50.50
35027;DHT22;60696;51.426;6.934;2022-08-11T10:41:20;32.40;53.40
35027;DHT22;60696;51.426;6.934;2022-08-11T10:44:05;32.50;49.90
35027;DHT22;60696;51.426;6.934;2022-08-11T10:46:32;31.50;50.90
35027;DHT22;60696;51.426;6.934;2022-08-11T10:49:16;31.90;52.50
35027;DHT22;60696;51.426;6.934;2022-08-11T10:51:43;32.30;52.50
35027;DHT22;60696;51.426;6.934;2022-08-11T10:54:28;32.70;50.40
35027;DHT22;60696;51.426;6.934;2022-08-11T10:57:13;32.00;50.50
35027;DHT22;60696;51.426;6.934;2022-08-11T10:59:57;31.50;50.90
35027;DHT22;60696;51.426;6.934;2022-08-11T11:02:23;31.40;50.90
35027;DHT22;60696;51.426;6.934;2022-08-11T11:07:16;31.80;52.90
35027;DHT22;60696;51.426;6.934;2022-08-11T11:09:48;32.10;52.70
35027;DHT22;60696;51.426;6.934;2022-08-11T11:12:18;32.40;50.60
35027;DHT22;60696;51.426;6.934;2022-08-11T11:15:03;31.80;50.20
35027;DHT22;60696;51.426;6.934;2022-08-11T11:17:54;32.10;51.30
35027;DHT22;60696;51.426;6.934;2022-08-11T11:20:25;32.30;49.70
35027;DHT22;60696;51.426;6.934;2022-08-11T11:22:53;31.90;51.30
35027;DHT22;60696;51.426;6.934;2022-08-11T11:25:35;32.10;50.60
35027;DHT22;60696;51.426;6.934;2022-08-11T11:33:36;32.00;50.50
35027;DHT22;60696;51.426;6.934;2022-08-11T11:36:11;31.60;51.30
35027;DHT22;60696;51.426;6.934;2022-08-11T11:38:40;31.10;50.90
35027;DHT22;60696;51.426;6.934;2022-08-11T11:41:06;31.10;51.30
35027;DHT22;60696;51.426;6.934;2022-08-11T11:43:53;31.10;51.90
35027;DHT22;60696;51.426;6.934;2022-08-11T11:46:20;30.90;52.60
35027;DHT22;60696;51.426;6.934;2022-08-11T11:48:46;31.10;52.20
35027;DHT22;60696;51.426;6.934;2022-08-11T11:51:11;31.40;51.30
35027;DHT22;60696;51.426;6.934;2022-08-11T11:53:39;31.70;51.90
35027;DHT22;60696;51.426;6.934;2022-08-11T11:56:07;31.60;51.80
35027;DHT22;60696;51.426;6.934;2022-08-11T11:58:33;31.80;52.50
35027;DHT22;60696;51.426;6.934;2022-08-11T12:01:17;31.50;51.70
35027;DHT22;60696;51.426;6.934;2022-08-11T12:03:45;31.10;51.10
35027;DHT22;60696;51.426;6.934;2022-08-11T12:06:11;31.10;53.30
35027;DHT22;60696;51.426;6.934;2022-08-11T12:08:38;31.50;51.90
35027;DHT22;60696;51.426;6.934;2022-08-11T12:11:05;31.50;50.30
35027;DHT22;60696;51.426;6.934;2022-08-11T12:13:50;31.60;51.60
35027;DHT22;60696;51.426;6.934;2022-08-11T12:16:20;31.80;51.00
35027;DHT22;60696;51.426;6.934;2022-08-11T12:18:46;31.60;50.30
35027;DHT22;60696;51.426;6.934;2022-08-11T12:21:14;31.70;51.20
35027;DHT22;60696;51.426;6.934;2022-08-11T12:23:40;31.70;50.50
35027;DHT22;60696;51.426;6.934;2022-08-11T12:26:24;31.20;51.50
35027;DHT22;60696;51.426;6.934;2022-08-11T12:29:09;31.00;50.10
35027;DHT22;60696;51.426;6.934;2022-08-11T12:31:36;31.00;50.80
35027;DHT22;60696;51.426;6.934;2022-08-11T12:34:12;31.30;51.80
35027;DHT22;60696;51.426;6.934;2022-08-11T12:36:48;31.50;52.00
35027;DHT22;60696;51.426;6.934;2022-08-11T12:39:16;31.60;51.10
35027;DHT22;60696;51.426;6.934;2022-08-11T12:41:44;31.40;51.80
35027;DHT22;60696;51.426;6.934;2022-08-11T12:44:28;31.30;51.50
35027;DHT22;60696;51.426;6.934;2022-08-11T12:47:17;31.30;52.60
35027;DHT22;60696;51.426;6.934;2022-08-11T12:49:47;31.30;52.60
35027;DHT22;60696;51.426;6.934;2022-08-11T12:52:41;30.80;52.60
35027;DHT22;60696;51.426;6.934;2022-08-11T12:55:11;31.10;53.50
35027;DHT22;60696;51.426;6.934;2022-08-11T12:57:38;31.30;51.80
35027;DHT22;60696;51.426;6.934;2022-08-11T13:00:23;31.30;52.20
35027;DHT22;60696;51.426;6.934;2022-08-11T13:03:08;31.20;52.20
35027;DHT22;60696;51.426;6.934;2022-08-11T13:05:54;31.30;52.90
35027;DHT22;60696;51.426;6.934;2022-08-11T13:08:21;31.40;51.50
35027;DHT22;60696;51.426;6.934;2022-08-11T13:10:48;31.10;51.70
35027;DHT22;60696;51.426;6.934;2022-08-11T13:13:32;30.90;53.20
35027;DHT22;60696;51.426;6.934;2022-08-11T13:15:58;31.10;52.50
35027;DHT22;60696;51.426;6.934;2022-08-11T13:18:24;30.80;51.10
35027;DHT22;60696;51.426;6.934;2022-08-11T13:20:52;30.50;51.10
35027;DHT22;60696;51.426;6.934;2022-08-11T13:23:18;30.50;52.40
35027;DHT22;60696;51.426;6.934;2022-08-11T13:25:44;30.20;52.10
35027;DHT22;60696;51.426;6.934;2022-08-11T13:28:10;30.40;53.00
35027;DHT22;60696;51.426;6.934;2022-08-11T13:30:37;30.60;52.90
35027;DHT22;60696;51.426;6.934;2022-08-11T13:33:21;30.60;52.50
35027;DHT22;60696;51.426;6.934;2022-08-11T13:35:48;30.50;51.60
35027;DHT22;60696;51.426;6.934;2022-08-11T13:38:14;30.40;52.50
35027;DHT22;60696;51.426;6.934;2022-08-11T13:40:40;30.40;52.20
35027;DHT22;60696;51.426;6.934;2022-08-11T13:43:07;30.30;52.20
35027;DHT22;60696;51.426;6.934;2022-08-11T13:45:33;30.40;52.60
35027;DHT22;60696;51.426;6.934;2022-08-11T13:47:59;30.40;53.50
35027;DHT22;60696;51.426;6.934;2022-08-11T13:50:26;30.60;53.80
35027;DHT22;60696;51.426;6.934;2022-08-11T13:53:13;30.70;53.20
35027;DHT22;60696;51.426;6.934;2022-08-11T13:55:39;30.90;53.30
35027;DHT22;60696;51.426;6.934;2022-08-11T13:58:06;30.80;52.80
35027;DHT22;60696;51.426;6.934;2022-08-11T14:00:33;30.80;52.50
35027;DHT22;60696;51.426;6.934;2022-08-11T14:03:00;30.90;51.70
35027;DHT22;60696;51.426;6.934;2022-08-11T14:05:30;30.50;51.70
35027;DHT22;60696;51.426;6.934;2022-08-11T14:08:01;30.40;52.60
35027;DHT22;60696;51.426;6.934;2022-08-11T14:10:27;30.50;53.30
35027;DHT22;60696;51.426;6.934;2022-08-11T14:13:15;30.40;53.00
35027;DHT22;60696;51.426;6.934;2022-08-11T14:16:02;30.50;52.60
35027;DHT22;60696;51.426;6.934;2022-08-11T14:18:30;30.40;52.20
35027;DHT22;60696;51.426;6.934;2022-08-11T14:20:58;30.20;52.40
35027;DHT22;60696;51.426;6.934;2022-08-11T14:23:44;30.30;53.50
35027;DHT22;60696;51.426;6.934;2022-08-11T14:26:10;30.40;53.10
35027;DHT22;60696;51.426;6.934;2022-08-11T14:28:55;30.40;53.80
35027;DHT22;60696;51.426;6.934;2022-08-11T14:31:22;30.40;52.10
35027;DHT22;60696;51.426;6.934;2022-08-11T14:33:50;30.20;53.80
35027;DHT22;60696;51.426;6.934;2022-08-11T14:36:17;30.30;53.80
35027;DHT22;60696;51.426;6.934;2022-08-11T14:38:42;30.30;52.80
35027;DHT22;60696;51.426;6.934;2022-08-11T14:41:08;30.10;52.90
35027;DHT22;60696;51.426;6.934;2022-08-11T14:43:54;30.20;53.20
35027;DHT22;60696;51.426;6.934;2022-08-11T14:46:39;30.00;52.10
35027;DHT22;60696;51.426;6.934;2022-08-11T14:49:24;30.10;53.30
35027;DHT22;60696;51.426;6.934;2022-08-11T14:51:50;30.10;53.00
35027;DHT22;60696;51.426;6.934;2022-08-11T14:54:21;30.20;52.00
35027;DHT22;60696;51.426;6.934;2022-08-11T14:57:06;30.10;53.50
35027;DHT22;60696;51.426;6.934;2022-08-11T14:59:31;30.20;52.70
35027;DHT22;60696;51.426;6.934;2022-08-11T15:01:57;30.20;53.00
35027;DHT22;60696;51.426;6.934;2022-08-11T15:04:43;30.20;52.50
35027;DHT22;60696;51.426;6.934;2022-08-11T15:07:09;30.10;52.00
35027;DHT22;60696;51.426;6.934;2022-08-11T15:09:35;30.10;51.30
35027;DHT22;60696;51.426;6.934;2022-08-11T15:12:00;30.10;52.70
35027;DHT22;60696;51.426;6.934;2022-08-11T15:14:43;30.10;52.40
35027;DHT22;60696;51.426;6.934;2022-08-11T15:17:32;30.30;51.20
35027;DHT22;60696;51.426;6.934;2022-08-11T15:20:02;30.20;51.80
35027;DHT22;60696;51.426;6.934;2022-08-11T15:22:47;30.10;51.50
35027;DHT22;60696;51.426;6.934;2022-08-11T15:25:32;30.10;51.60
35027;DHT22;60696;51.426;6.934;2022-08-11T15:27:58;30.10;51.80
35027;DHT22;60696;51.426;6.934;2022-08-11T15:30:44;30.10;52.30
35027;DHT22;60696;51.426;6.934;2022-08-11T15:33:29;30.10;52.30
35027;DHT22;60696;51.426;6.934;2022-08-11T15:36:14;30.10;52.00
35027;DHT22;60696;51.426;6.934;2022-08-11T15:39:12;30.10;51.80
35027;DHT22;60696;51.426;6.934;2022-08-11T15:41:42;30.10;51.60
35027;DHT22;60696;51.426;6.934;2022-08-11T15:44:29;30.10;51.40
35027;DHT22;60696;51.426;6.934;2022-08-11T15:47:14;29.90;51.80
35027;DHT22;60696;51.426;6.934;2022-08-11T15:49:41;30.00;51.60
35027;DHT22;60696;51.426;6.934;2022-08-11T15:52:09;29.80;51.10
35027;DHT22;60696;51.426;6.934;2022-08-11T15:54:39;29.80;51.30
35027;DHT22;60696;51.426;6.934;2022-08-11T15:57:06;29.80;50.70
35027;DHT22;60696;51.426;6.934;2022-08-11T15:59:32;29.80;51.40
35027;DHT22;60696;51.426;6.934;2022-08-11T16:02:18;29.80;51.30
35027;DHT22;60696;51.426;6.934;2022-08-11T16:05:11;29.90;51.00
35027;DHT22;60696;51.426;6.934;2022-08-11T16:07:38;29.80;50.80
35027;DHT22;60696;51.426;6.934;2022-08-11T16:10:05;29.80;51.20
35027;DHT22;60696;51.426;6.934;2022-08-11T16:12:37;29.80;50.60
35027;DHT22;60696;51.426;6.934;2022-08-11T16:15:05;29.80;51.20
35027;DHT22;60696;51.426;6.934;2022-08-11T16:18:00;29.90;51.40
35027;DHT22;60696;51.426;6.934;2022-08-11T16:20:27;29.80;51.00
35027;DHT22;60696;51.426;6.934;2022-08-11T16:22:53;29.80;51.50
35027;DHT22;60696;51.426;6.934;2022-08-11T16:25:20;29.90;51.40
35027;DHT22;60696;51.426;6.934;2022-08-11T16:27:51;29.70;51.00
35027;DHT22;60696;51.426;6.934;2022-08-11T16:30:17;29.70;51.40
35027;DHT22;60696;51.426;6.934;2022-08-11T16:32:44;29.70;51.70
35027;DHT22;60696;51.426;6.934;2022-08-11T16:35:14;29.80;52.20
35027;DHT22;60696;51.426;6.934;2022-08-11T16:37:59;29.70;51.30
35027;DHT22;60696;51.426;6.934;2022-08-11T16:40:44;29.60;50.80
35027;DHT22;60696;51.426;6.934;2022-08-11T16:43:12;29.60;51.30
35027;DHT22;60696;51.426;6.934;2022-08-11T16:45:57;29.60;51.50
35027;DHT22;60696;51.426;6.934;2022-08-11T16:48:44;29.60;51.70
35027;DHT22;60696;51.426;6.934;2022-08-11T16:51:11;29.60;51.50
35027;DHT22;60696;51.426;6.934;2022-08-11T16:53:37;29.50;51.00
35027;DHT22;60696;51.426;6.934;2022-08-11T16:56:04;29.40;51.90
35027;DHT22;60696;51.426;6.934;2022-08-11T16:58:30;29.50;52.10
35027;DHT22;60696;51.426;6.934;2022-08-11T17:01:16;29.40;51.40
35027;DHT22;60696;51.426;6.934;2022-08-11T17:03:45;29.40;51.30
35027;DHT22;60696;51.426;6.934;2022-08-11T17:06:30;29.40;51.90
35027;DHT22;60696;51.426;6.934;2022-08-11T17:09:16;29.40;51.60
35027;DHT22;60696;51.426;6.934;2022-08-11T17:12:02;29.50;51.40
35027;DHT22;60696;51.426;6.934;2022-08-11T17:17:13;29.40;52.20
35027;DHT22;60696;51.426;6.934;2022-08-11T17:19:47;29.40;52.00
35027;DHT22;60696;51.426;6.934;2022-08-11T17:22:14;29.40;52.20
35027;DHT22;60696;51.426;6.934;2022-08-11T17:25:01;29.30;52.30
35027;DHT22;60696;51.426;6.934;2022-08-11T17:27:27;29.30;52.40
35027;DHT22;60696;51.426;6.934;2022-08-11T17:29:58;29.20;52.40
35027;DHT22;60696;51.426;6.934;2022-08-11T17:32:35;29.10;52.20
35027;DHT22;60696;51.426;6.934;2022-08-11T17:35:20;29.00;51.90
35027;DHT22;60696;51.426;6.934;2022-08-11T17:38:17;29.00;52.20
35027;DHT22;60696;51.426;6.934;2022-08-11T17:40:42;29.00;51.60
35027;DHT22;60696;51.426;6.934;2022-08-11T17:43:29;28.90;52.00
35027;DHT22;60696;51.426;6.934;2022-08-11T17:46:14;28.90;52.20
35027;DHT22;60696;51.426;6.934;2022-08-11T17:48:58;28.80;52.20
35027;DHT22;60696;51.426;6.934;2022-08-11T17:51:24;28.80;52.50
35027;DHT22;60696;51.426;6.934;2022-08-11T17:54:08;28.80;53.00
35027;DHT22;60696;51.426;6.934;2022-08-11T17:56:52;28.80;52.50
35027;DHT22;60696;51.426;6.934;2022-08-11T17:59:37;28.70;52.60
35027;DHT22;60696;51.426;6.934;2022-08-11T18:02:27;28.70;52.60
35027;DHT22;60696;51.426;6.934;2022-08-11T18:05:12;28.60;52.30
35027;DHT22;60696;51.426;6.934;2022-08-11T18:07:42;28.60;53.00
35027;DHT22;60696;51.426;6.934;2022-08-11T18:10:30;28.50;52.80
35027;DHT22;60696;51.426;6.934;2022-08-11T18:13:16;28.50;52.80
35027;DHT22;60696;51.426;6.934;2022-08-11T18:16:01;28.40;53.10
35027;DHT22;60696;51.426;6.934;2022-08-11T18:18:45;28.40;53.30
35027;DHT22;60696;51.426;6.934;2022-08-11T18:21:29;28.40;52.90
35027;DHT22;60696;51.426;6.934;2022-08-11T18:24:14;28.30;53.10
35027;DHT22;60696;51.426;6.934;2022-08-11T18:26:59;28.30;53.60
35027;DHT22;60696;51.426;6.934;2022-08-11T18:29:44;28.20;53.00
35027;DHT22;60696;51.426;6.934;2022-08-11T18:32:31;28.10;53.30
35027;DHT22;60696;51.426;6.934;2022-08-11T18:35:17;28.10;53.80
35027;DHT22;60696;51.426;6.934;2022-08-11T18:38:02;28.00;53.70
35027;DHT22;60696;51.426;6.934;2022-08-11T18:40:47;27.90;54.40
35027;DHT22;60696;51.426;6.934;2022-08-11T18:43:32;27.90;54.20
35027;DHT22;60696;51.426;6.934;2022-08-11T18:46:18;27.80;54.40
35027;DHT22;60696;51.426;6.934;2022-08-11T18:49:05;27.70;54.60
35027;DHT22;60696;51.426;6.934;2022-08-11T18:51:51;27.60;54.70
35027;DHT22;60696;51.426;6.934;2022-08-11T18:54:37;27.50;55.00
35027;DHT22;60696;51.426;6.934;2022-08-11T18:57:23;27.50;55.40
35027;DHT22;60696;51.426;6.934;2022-08-11T19:00:07;27.40;55.30
35027;DHT22;60696;51.426;6.934;2022-08-11T19:02:51;27.40;55.30
35027;DHT22;60696;51.426;6.934;2022-08-11T19:05:37;27.30;55.60
35027;DHT22;60696;51.426;6.934;2022-08-11T19:08:21;27.30;55.70
35027;DHT22;60696;51.426;6.934;2022-08-11T19:11:05;27.20;55.90
35027;DHT22;60696;51.426;6.934;2022-08-11T19:13:51;27.10;55.90
35027;DHT22;60696;51.426;6.934;2022-08-11T19:16:35;27.10;56.20
35027;DHT22;60696;51.426;6.934;2022-08-11T19:19:20;26.90;56.60
35027;DHT22;60696;51.426;6.934;2022-08-11T19:22:06;26.90;56.70
35027;DHT22;60696;51.426;6.934;2022-08-11T19:24:51;26.80;56.90
35027;DHT22;60696;51.426;6.934;2022-08-11T19:27:35;26.80;56.80
35027;DHT22;60696;51.426;6.934;2022-08-11T19:30:20;26.70;57.00
35027;DHT22;60696;51.426;6.934;2022-08-11T19:33:04;26.60;57.10